Time;durP1;ratioP1;P1;durP2;ratioP2;P2;SDS_P1;SDS_P2;PMS_P1;PMS_P2;Temp;Humidity;BMP_temperature;BMP_pressure;BME280_temperature;BME280_humidity;BME280_pressure;Samples;Min_cycle;Max_cycle;Signal;HPM_P1;HPM_P2
2022/09/01 00:01:44;;;;;;;2.53;1.38;;;11.70;99.90;;;;;;5095674;27;20078;-67
2022/09/01 00:04:12;;;;;;;2.13;1.40;;;11.70;99.90;;;;;;5100089;28;20115;-67
2022/09/01 00:06:39;;;;;;;2.45;1.60;;;11.80;99.90;;;;;;5092081;28;20043;-67
2022/09/01 00:09:08;;;;;;;1.98;1.00;;;11.80;99.90;;;;;;5101321;28;20040;-66
2022/09/01 00:11:35;;;;;;;3.95;1.30;;;11.80;99.90;;;;;;5095735;28;20754;-67
2022/09/01 00:14:02;;;;;;;2.60;1.55;;;11.70;99.90;;;;;;5101273;28;20105;-67
2022/09/01 00:16:29;;;;;;;3.08;1.38;;;11.60;99.90;;;;;;5096212;28;20069;-66
2022/09/01 00:18:56;;;;;;;7.72;1.40;;;11.60;99.90;;;;;;5088208;28;20064;-66
2022/09/01 00:21:32;;;;;;;3.25;1.50;;;11.50;99.90;;;;;;5082902;28;20055;-66
2022/09/01 00:23:59;;;;;;;2.08;1.63;;;11.50;99.90;;;;;;5091885;28;20047;-65
2022/09/01 00:26:24;;;;;;;5.45;1.48;;;11.60;99.90;;;;;;5081946;28;20079;-67
2022/09/01 00:28:50;;;;;;;;;;;11.40;99.90;;;;;;5088503;28;20075;-66
2022/09/01 00:31:18;;;;;;;2.38;1.73;;;11.50;99.90;;;;;;5081342;28;19923;-66
2022/09/01 00:33:45;;;;;;;1.65;1.20;;;11.40;99.90;;;;;;5087497;28;20487;-67
2022/09/01 00:36:10;;;;;;;3.22;1.50;;;11.40;99.90;;;;;;5081612;28;20085;-66
2022/09/01 00:38:36;;;;;;;;;;;11.50;99.90;;;;;;5087971;28;20040;-66
2022/09/01 00:41:04;;;;;;;2.35;1.52;;;11.50;99.90;;;;;;5082059;28;19927;-67
2022/09/01 00:43:44;;;;;;;1.60;1.10;;;11.50;99.90;;;;;;5087826;28;20055;-66
2022/09/01 00:46:14;;;;;;;5.72;1.40;;;11.60;99.90;;;;;;5082572;28;20079;-66
2022/09/01 00:48:40;;;;;;;6.72;2.58;;;11.60;99.90;;;;;;5081941;28;20040;-66
2022/09/01 00:51:08;;;;;;;;;;;11.60;99.90;;;;;;5081730;28;20047;-66
2022/09/01 00:53:35;;;;;;;3.70;1.45;;;11.50;99.90;;;;;;5090540;28;20002;-66
2022/09/01 00:56:02;;;;;;;3.58;1.45;;;11.40;99.90;;;;;;5084195;28;20040;-66
2022/09/01 00:58:29;;;;;;;1.83;1.27;;;11.50;99.90;;;;;;5087135;28;20122;-67
2022/09/01 01:00:54;;;;;;;2.28;1.25;;;11.40;99.90;;;;;;5079870;28;20120;-66
2022/09/01 01:03:20;;;;;;;;;;;11.40;99.90;;;;;;5087087;28;20119;-66
2022/09/01 01:05:56;;;;;;;3.35;1.45;;;11.40;99.90;;;;;;5081039;28;19966;-67
2022/09/01 01:08:32;;;;;;;2.15;1.15;;;11.40;99.90;;;;;;5078826;28;20044;-68
2022/09/01 01:11:00;;;;;;;1.65;1.13;;;11.40;99.90;;;;;;5082974;28;20040;-66
2022/09/01 01:13:27;;;;;;;1.98;1.10;;;11.20;99.90;;;;;;5086009;28;20400;-65
2022/09/01 01:15:53;;;;;;;1.77;1.25;;;11.20;99.90;;;;;;5080731;28;20723;-67
2022/09/01 01:18:18;;;;;;;;;;;11.20;99.90;;;;;;5087249;28;20130;-66
2022/09/01 01:23:38;;;;;;;3.78;1.45;;;11.30;99.90;;;;;;5088234;28;20043;-66
2022/09/01 01:26:06;;;;;;;5.57;1.13;;;11.20;99.90;;;;;;5080016;28;20105;-67
2022/09/01 01:28:35;;;;;;;3.30;1.25;;;11.30;99.90;;;;;;5086182;28;20058;-67
2022/09/01 01:31:11;;;;;;;6.22;1.55;;;11.30;99.90;;;;;;5080069;28;20056;-67
2022/09/01 01:33:48;;;;;;;2.30;1.20;;;11.30;99.90;;;;;;5086103;28;20123;-66
2022/09/01 01:36:20;;;;;;;2.22;1.38;;;11.30;99.90;;;;;;5080108;28;20492;-64
2022/09/01 01:38:48;;;;;;;5.72;1.73;;;11.30;99.90;;;;;;5084682;28;20063;-65
2022/09/01 01:41:18;;;;;;;1.90;1.10;;;11.30;99.90;;;;;;5078814;28;20040;-67
2022/09/01 01:43:45;;;;;;;4.47;1.55;;;11.30;99.90;;;;;;5086865;28;20130;-65
2022/09/01 01:46:12;;;;;;;4.25;1.40;;;11.30;99.90;;;;;;5081619;28;20130;-67
2022/09/01 01:48:40;;;;;;;3.00;1.40;;;11.30;99.90;;;;;;5086774;28;20044;-66
2022/09/01 01:51:07;;;;;;;3.95;1.50;;;11.30;99.90;;;;;;5082096;28;20506;-66
2022/09/01 01:53:34;;;;;;;1.40;1.15;;;11.30;99.90;;;;;;5088996;28;20101;-64
2022/09/01 01:56:00;;;;;;;2.83;1.23;;;11.30;99.90;;;;;;5086821;28;20044;-66
2022/09/01 01:58:27;;;;;;;;;;;11.30;99.90;;;;;;5086716;28;20384;-67
2022/09/01 02:00:54;;;;;;;3.92;1.30;;;11.30;99.90;;;;;;5080634;28;19926;-67
2022/09/01 02:03:23;;;;;;;2.42;1.30;;;11.30;99.90;;;;;;5085334;28;20487;-66
2022/09/01 02:05:52;;;;;;;1.50;1.13;;;11.30;99.90;;;;;;5080696;28;20037;-66
2022/09/01 02:08:21;;;;;;;3.28;1.45;;;11.20;99.90;;;;;;5086423;28;20067;-66
2022/09/01 02:10:50;;;;;;;1.60;1.20;;;11.20;99.90;;;;;;5080306;28;20086;-66
2022/09/01 02:13:19;;;;;;;2.13;1.10;;;11.10;99.90;;;;;;5085509;28;20032;-66
2022/09/01 02:15:54;;;;;;;1.80;1.20;;;11.20;99.90;;;;;;5079255;28;20076;-66
2022/09/01 02:18:23;;;;;;;3.10;1.80;;;11.20;99.90;;;;;;5079449;28;20040;-66
2022/09/01 02:20:50;;;;;;;3.10;1.95;;;11.10;99.90;;;;;;5079961;28;20068;-65
2022/09/01 02:23:22;;;;;;;2.28;1.05;;;11.10;99.90;;;;;;5086261;28;20044;-64
2022/09/01 02:25:49;;;;;;;3.45;1.40;;;11.10;99.90;;;;;;5083843;28;20131;-67
2022/09/01 02:28:17;;;;;;;3.53;1.27;;;11.10;99.90;;;;;;5085763;28;20043;-66
2022/09/01 02:30:50;;;;;;;4.55;1.40;;;11.00;99.90;;;;;;5079963;28;20396;-66
2022/09/01 02:33:18;;;;;;;3.15;1.33;;;11.00;99.90;;;;;;5085865;28;20062;-67
2022/09/01 02:35:50;;;;;;;2.25;1.38;;;11.00;99.90;;;;;;5080068;28;20071;-67
2022/09/01 02:38:17;;;;;;;2.80;1.40;;;11.00;99.90;;;;;;5081719;28;20430;-66
2022/09/01 02:40:48;;;;;;;2.85;1.33;;;11.00;99.90;;;;;;5075042;28;20479;-65
2022/09/01 02:43:19;;;;;;;2.35;1.10;;;10.90;99.90;;;;;;5083782;28;20040;-66
2022/09/01 02:45:46;;;;;;;2.80;1.20;;;11.00;99.90;;;;;;5084004;28;20516;-66
2022/09/01 02:48:12;;;;;;;3.00;1.13;;;10.90;99.90;;;;;;5084842;28;20048;-67
2022/09/01 02:50:40;;;;;;;7.05;1.42;;;10.90;99.90;;;;;;5083599;28;20054;-66
2022/09/01 02:53:08;;;;;;;3.78;1.23;;;10.80;99.90;;;;;;5079776;28;20127;-66
2022/09/01 02:55:38;;;;;;;3.97;1.73;;;10.60;99.90;;;;;;5089193;28;20036;-67
2022/09/01 02:58:09;;;;;;;3.00;1.17;;;10.40;99.90;;;;;;5084751;28;20735;-66
2022/09/01 03:00:38;;;;;;;1.75;1.20;;;10.30;99.90;;;;;;5083775;27;20032;-66
2022/09/01 03:03:05;;;;;;;2.42;1.30;;;10.40;99.90;;;;;;5082653;28;20039;-67
2022/09/01 03:05:33;;;;;;;2.78;1.05;;;10.40;99.90;;;;;;5082156;28;20043;-66
2022/09/01 03:08:02;;;;;;;2.72;1.33;;;10.40;99.90;;;;;;5085148;28;20047;-66
2022/09/01 03:10:34;;;;;;;2.45;1.23;;;10.40;99.90;;;;;;5084785;28;20102;-67
2022/09/01 03:13:03;;;;;;;5.90;1.40;;;10.40;99.90;;;;;;5085666;28;20547;-66
2022/09/01 03:15:29;;;;;;;1.90;1.10;;;10.40;99.90;;;;;;5082396;28;20051;-66
2022/09/01 03:17:56;;;;;;;4.05;1.33;;;10.50;99.90;;;;;;5084947;28;20496;-66
2022/09/01 03:20:22;;;;;;;2.35;1.13;;;10.50;99.90;;;;;;5083275;28;20044;-66
2022/09/01 03:22:49;;;;;;;;;;;10.40;99.90;;;;;;5086258;28;20039;-66
2022/09/01 03:25:15;;;;;;;3.95;1.40;;;10.50;99.90;;;;;;5089413;28;19986;-65
2022/09/01 03:27:41;;;;;;;2.13;1.23;;;10.50;99.90;;;;;;5085619;28;20485;-65
2022/09/01 03:30:06;;;;;;;;;;;10.40;99.90;;;;;;5085035;28;20032;-66
2022/09/01 03:32:32;;;;;;;2.60;1.15;;;10.40;99.90;;;;;;5080860;28;19916;-65
2022/09/01 03:34:58;;;;;;;;;;;10.40;99.90;;;;;;5085129;28;20032;-66
2022/09/01 03:37:24;;;;;;;2.75;1.05;;;10.40;99.90;;;;;;5080951;28;19916;-66
2022/09/01 03:39:49;;;;;;;;;;;10.40;99.90;;;;;;5084969;28;20724;-66
2022/09/01 03:42:18;;;;;;;2.30;1.10;;;10.40;99.90;;;;;;5080739;28;19920;-66
2022/09/01 03:44:44;;;;;;;2.33;1.55;;;10.40;99.90;;;;;;5085080;28;20055;-67
2022/09/01 03:47:10;;;;;;;;;;;10.40;99.90;;;;;;5077418;28;20044;-67
2022/09/01 03:49:38;;;;;;;2.45;1.40;;;10.30;99.90;;;;;;5085438;28;20356;-65
2022/09/01 03:52:06;;;;;;;2.45;1.40;;;10.30;99.90;;;;;;5079148;28;20048;-65
2022/09/01 03:54:32;;;;;;;7.75;1.50;;;10.20;99.90;;;;;;5094818;28;20040;-66
2022/09/01 03:56:58;;;;;;;;;;;10.20;99.90;;;;;;5083732;28;20109;-67
2022/09/01 03:59:24;;;;;;;2.10;1.30;;;10.20;99.90;;;;;;5089124;28;19965;-65
2022/09/01 04:01:50;;;;;;;;;;;10.20;99.90;;;;;;5082758;28;20036;-66
2022/09/01 04:04:15;;;;;;;2.10;1.23;;;10.20;99.90;;;;;;5088490;28;19916;-66
2022/09/01 04:06:42;;;;;;;;;;;10.10;99.90;;;;;;5084043;28;20456;-66
2022/09/01 04:09:09;;;;;;;5.40;1.60;;;10.00;99.90;;;;;;5090564;28;20018;-66
2022/09/01 04:11:38;;;;;;;1.73;1.23;;;10.10;99.90;;;;;;5085075;28;20048;-66
2022/09/01 04:14:04;;;;;;;4.22;1.17;;;9.80;99.90;;;;;;5089148;28;20043;-66
2022/09/01 04:19:24;;;;;;;2.33;1.60;;;9.80;99.90;;;;;;5090618;28;20032;-66
2022/09/01 04:21:56;;;;;;;2.03;1.10;;;9.80;99.90;;;;;;5083231;28;20048;-66
2022/09/01 04:24:26;;;;;;;4.53;1.20;;;9.90;99.90;;;;;;5086704;28;20592;-66
2022/09/01 04:26:53;;;;;;;5.25;1.30;;;9.90;99.90;;;;;;5082960;28;20543;-66
2022/09/01 04:29:26;;;;;;;2.22;1.38;;;9.90;99.90;;;;;;5089182;28;20416;-66
2022/09/01 04:31:53;;;;;;;4.18;1.38;;;9.80;99.90;;;;;;5080752;28;20587;-66
2022/09/01 04:34:21;;;;;;;3.72;1.75;;;9.80;99.90;;;;;;5088968;28;20050;-66
2022/09/01 04:36:47;;;;;;;5.95;1.25;;;9.80;99.90;;;;;;5083185;28;20407;-66
2022/09/01 04:39:13;;;;;;;2.33;1.15;;;9.80;99.90;;;;;;5087707;28;20059;-66
2022/09/01 04:41:43;;;;;;;2.33;1.30;;;9.80;99.90;;;;;;5081629;28;20071;-66
2022/09/01 04:44:09;;;;;;;5.82;1.33;;;9.80;99.90;;;;;;5088643;28;20597;-66
2022/09/01 04:46:39;;;;;;;;;;;9.70;99.90;;;;;;5083116;28;20048;-65
2022/09/01 04:49:07;;;;;;;3.28;1.50;;;9.80;99.90;;;;;;5088410;28;20006;-66
2022/09/01 04:51:34;;;;;;;2.42;1.65;;;9.70;99.90;;;;;;5083269;28;20044;-66
2022/09/01 04:54:01;;;;;;;4.40;1.83;;;9.70;99.90;;;;;;5083152;28;20083;-67
2022/09/01 04:56:29;;;;;;;2.00;1.50;;;9.50;99.90;;;;;;5082678;28;20135;-66
2022/09/01 04:58:55;;;;;;;7.65;1.75;;;9.50;99.90;;;;;;5087746;28;20039;-66
2022/09/01 05:01:22;;;;;;;;;;;9.40;99.90;;;;;;5083670;28;20036;-66
2022/09/01 05:04:00;;;;;;;;;;;9.40;99.90;;;;;;5086033;28;19920;-66
2022/09/01 05:06:28;;;;;;;5.32;1.80;;;9.50;99.90;;;;;;5076832;28;19924;-67
2022/09/01 05:08:56;;;;;;;2.80;1.40;;;9.50;99.90;;;;;;5088014;28;20040;-66
2022/09/01 05:11:22;;;;;;;2.88;1.42;;;9.60;99.90;;;;;;5076522;28;20040;-66
2022/09/01 05:13:49;;;;;;;2.65;1.30;;;9.90;99.90;;;;;;5087028;28;20032;-66
2022/09/01 05:16:20;;;;;;;3.53;1.20;;;10.00;99.90;;;;;;5080891;28;20093;-64
2022/09/01 05:18:48;;;;;;;3.10;1.48;;;10.50;99.90;;;;;;5082922;28;20136;-65
2022/09/01 05:21:23;;;;;;;4.78;1.70;;;11.40;99.90;;;;;;5078819;28;20047;-66
2022/09/01 05:23:50;;;;;;;2.15;1.00;;;12.80;99.90;;;;;;5085075;28;20046;-65
2022/09/01 05:26:19;;;;;;;1.80;1.08;;;14.00;99.90;;;;;;5078447;28;20039;-66
2022/09/01 05:28:47;;;;;;;3.30;1.33;;;15.00;98.70;;;;;;5088476;28;20101;-66
2022/09/01 05:31:13;;;;;;;8.93;0.90;;;15.50;96.50;;;;;;5082011;28;20060;-64
2022/09/01 05:33:44;;;;;;;3.38;1.10;;;15.30;97.00;;;;;;5082696;28;20047;-66
2022/09/01 05:36:16;;;;;;;2.65;1.00;;;14.60;97.70;;;;;;5083647;28;20048;-65
2022/09/01 05:38:43;;;;;;;4.00;1.25;;;13.80;99.70;;;;;;5087581;28;20040;-65
2022/09/01 05:41:13;;;;;;;8.65;1.25;;;13.50;99.90;;;;;;5081217;28;20040;-65
2022/09/01 05:43:47;;;;;;;4.47;1.15;;;14.20;99.90;;;;;;5087194;28;20075;-64
2022/09/01 05:46:22;;;;;;;5.82;1.10;;;14.80;97.50;;;;;;5080238;28;20487;-66
2022/09/01 05:48:50;;;;;;;2.33;0.85;;;14.60;97.80;;;;;;5084599;28;20044;-65
2022/09/01 05:51:19;;;;;;;2.70;1.15;;;14.10;98.80;;;;;;5080961;28;20038;-65
2022/09/01 05:53:46;;;;;;;1.98;0.90;;;13.80;99.00;;;;;;5090631;28;20066;-67
2022/09/01 05:56:13;;;;;;;3.58;1.42;;;13.40;99.30;;;;;;5081367;28;20411;-67
2022/09/01 05:58:44;;;;;;;4.88;1.25;;;13.00;99.90;;;;;;5085605;28;20040;-69
2022/09/01 06:01:16;;;;;;;2.15;1.20;;;12.80;99.90;;;;;;5078256;28;20129;-66
2022/09/01 06:03:43;;;;;;;2.33;1.10;;;12.60;99.90;;;;;;5085555;28;20040;-65
2022/09/01 06:06:11;;;;;;;4.97;1.30;;;12.60;99.90;;;;;;5080919;28;20325;-65
2022/09/01 06:08:36;;;;;;;7.47;1.52;;;13.30;99.90;;;;;;5085870;28;20491;-66
2022/09/01 06:11:11;;;;;;;;;;;14.30;99.90;;;;;;5081318;28;20048;-65
2022/09/01 06:13:40;;;;;;;9.32;2.30;;;14.90;98.60;;;;;;5083795;28;20578;-65
2022/09/01 06:16:10;;;;;;;9.93;1.80;;;15.30;97.40;;;;;;5082924;28;20087;-64
2022/09/01 06:18:37;;;;;;;5.70;1.35;;;15.50;97.30;;;;;;5085158;28;20040;-64
2022/09/01 06:21:07;;;;;;;8.05;1.17;;;15.80;97.00;;;;;;5083707;28;20451;-67
2022/09/01 06:23:34;;;;;;;5.63;1.42;;;15.70;97.00;;;;;;5090408;28;20043;-66
2022/09/01 06:26:02;;;;;;;2.47;1.13;;;15.60;97.60;;;;;;5079461;28;20701;-67
2022/09/01 06:28:28;;;;;;;4.72;0.90;;;15.40;97.20;;;;;;5087042;28;20063;-65
2022/09/01 06:30:56;;;;;;;11.18;1.95;;;15.70;96.70;;;;;;5078589;28;20079;-68
2022/09/01 06:33:24;;;;;;;16.98;1.90;;;15.60;96.90;;;;;;5086293;28;20591;-64
2022/09/01 06:35:51;;;;;;;14.57;2.92;;;15.50;97.30;;;;;;5081212;28;20044;-66
2022/09/01 06:38:18;;;;;;;27.42;3.10;;;15.20;98.10;;;;;;5079010;28;20104;-65
2022/09/01 06:40:44;;;;;;;21.90;3.58;;;15.00;98.60;;;;;;5080855;28;20531;-65
2022/09/01 06:43:11;;;;;;;9.68;1.67;;;14.70;99.30;;;;;;5085289;28;20507;-65
2022/09/01 06:45:43;;;;;;;16.08;1.92;;;14.60;99.90;;;;;;5085156;28;20105;-64
2022/09/01 06:48:14;;;;;;;10.65;1.45;;;14.50;99.90;;;;;;5084272;28;20036;-66
2022/09/01 06:50:41;;;;;;;4.22;1.42;;;14.50;99.90;;;;;;5079886;28;20044;-66
2022/09/01 06:53:09;;;;;;;7.85;1.23;;;14.50;99.90;;;;;;5084857;28;20040;-66
2022/09/01 06:55:38;;;;;;;6.35;1.58;;;14.40;99.90;;;;;;5086626;28;20036;-66
2022/09/01 06:58:05;;;;;;;2.90;1.02;;;14.50;99.90;;;;;;5085427;28;20807;-65
2022/09/01 07:00:40;;;;;;;15.48;3.38;;;14.50;99.90;;;;;;5080710;28;20048;-64
2022/09/01 07:03:08;;;;;;;7.32;0.98;;;14.50;99.90;;;;;;5084426;28;20035;-65
2022/09/01 07:05:38;;;;;;;1.80;0.90;;;14.50;99.90;;;;;;5079917;28;20491;-65
2022/09/01 07:08:07;;;;;;;2.05;1.00;;;14.50;99.90;;;;;;5084181;28;20044;-65
2022/09/01 07:10:34;;;;;;;2.65;0.85;;;14.70;99.90;;;;;;5081742;28;20053;-67
2022/09/01 07:13:00;;;;;;;6.93;1.15;;;14.70;99.90;;;;;;5084644;28;20105;-66
2022/09/01 07:15:29;;;;;;;3.53;1.10;;;14.80;99.90;;;;;;5081302;28;20044;-64
2022/09/01 07:17:57;;;;;;;1.75;0.90;;;14.80;99.90;;;;;;5085835;28;20051;-64
2022/09/01 07:20:27;;;;;;;3.17;1.30;;;14.90;99.90;;;;;;5085305;28;20040;-65
2022/09/01 07:22:55;;;;;;;2.10;1.08;;;15.10;99.90;;;;;;5085521;28;20102;-67
2022/09/01 07:25:22;;;;;;;5.80;1.27;;;15.20;99.90;;;;;;5088966;28;20032;-66
2022/09/01 07:27:49;;;;;;;5.47;1.17;;;15.20;99.80;;;;;;5084402;28;20600;-65
2022/09/01 07:30:19;;;;;;;4.15;1.23;;;15.20;99.80;;;;;;5085449;28;20115;-66
2022/09/01 07:32:47;;;;;;;3.78;1.58;;;15.20;99.80;;;;;;5086343;28;20515;-68
2022/09/01 07:35:15;;;;;;;5.53;1.40;;;15.30;99.70;;;;;;5088647;28;20047;-67
2022/09/01 07:37:41;;;;;;;2.75;1.60;;;15.40;99.90;;;;;;5088186;28;20124;-66
2022/09/01 07:40:08;;;;;;;;;;;15.50;99.90;;;;;;5090865;28;20102;-66
2022/09/01 07:42:34;;;;;;;;;;;15.60;99.70;;;;;;5118296;27;19927;-66
2022/09/01 07:45:03;;;;;;;3.22;1.30;;;15.70;99.90;;;;;;5087860;28;19931;-65
2022/09/01 07:47:29;;;;;;;5.90;1.98;;;15.80;99.90;;;;;;5090523;28;20051;-65
2022/09/01 07:49:55;;;;;;;;;;;15.90;99.70;;;;;;5088403;28;20044;-67
2022/09/01 07:52:20;;;;;;;5.70;1.80;;;16.00;99.90;;;;;;5089408;28;19919;-65
2022/09/01 07:54:46;;;;;;;;;;;16.00;99.00;;;;;;5093674;28;20106;-64
2022/09/01 07:57:12;;;;;;;7.07;1.95;;;16.10;99.70;;;;;;5088963;28;20046;-68
2022/09/01 07:59:37;;;;;;;;;;;16.10;99.60;;;;;;5091331;28;20415;-65
2022/09/01 08:02:04;;;;;;;10.00;2.20;;;16.20;98.90;;;;;;5087468;27;19916;-66
2022/09/01 08:04:30;;;;;;;4.05;1.90;;;16.30;98.50;;;;;;5090476;28;20040;-67
2022/09/01 08:06:56;;;;;;;2.70;1.88;;;16.40;99.00;;;;;;5088516;28;20810;-67
2022/09/01 08:09:22;;;;;;;;;;;17.00;98.00;;;;;;5083794;28;20035;-66
2022/09/01 08:11:47;;;;;;;4.90;1.58;;;18.20;96.10;;;;;;5083251;28;20006;-65
2022/09/01 08:14:13;;;;;;;4.55;1.58;;;18.90;93.90;;;;;;5086079;28;20118;-66
2022/09/01 08:16:39;;;;;;;2.17;1.27;;;19.90;92.80;;;;;;5086156;28;20072;-66
2022/09/01 08:19:04;;;;;;;4.80;1.63;;;21.00;90.90;;;;;;5087762;28;20040;-66
2022/09/01 08:21:30;;;;;;;2.42;1.20;;;21.60;86.60;;;;;;5083211;28;20042;-68
2022/09/01 08:23:55;;;;;;;3.72;1.02;;;22.20;86.50;;;;;;5089335;28;20036;-65
2022/09/01 08:26:24;;;;;;;6.53;1.55;;;23.40;83.90;;;;;;5083468;28;20576;-65
2022/09/01 08:28:52;;;;;;;2.00;1.05;;;24.00;79.20;;;;;;5088728;28;20044;-67
2022/09/01 08:31:19;;;;;;;4.78;1.50;;;24.60;77.60;;;;;;5079246;28;20512;-64
2022/09/01 08:33:46;;;;;;;3.42;1.15;;;25.10;76.90;;;;;;5087833;28;20123;-66
2022/09/01 08:36:14;;;;;;;1.70;1.00;;;24.60;73.90;;;;;;5084433;28;20599;-66
2022/09/01 08:38:40;;;;;;;4.53;0.98;;;23.90;76.20;;;;;;5086374;28;20571;-67
2022/09/01 08:41:16;;;;;;;7.03;1.77;;;23.30;78.50;;;;;;5080382;28;20659;-66
2022/09/01 08:44:10;;;;;;;7.40;1.52;;;22.10;81.20;;;;;;5087544;28;20046;-67
2022/09/01 08:46:41;;;;;;;2.30;1.00;;;20.60;85.80;;;;;;5077843;28;20084;-66
2022/09/01 08:49:12;;;;;;;3.88;1.10;;;19.70;88.60;;;;;;5088227;28;20042;-66
2022/09/01 08:51:44;;;;;;;2.85;1.02;;;19.20;89.10;;;;;;5080971;28;20028;-69
2022/09/01 08:54:39;;;;;;;1.40;0.77;;;18.90;89.00;;;;;;5092856;28;20063;-66
2022/09/01 08:57:19;;;;;;;2.00;1.08;;;18.80;90.20;;;;;;5070734;28;20548;-64
2022/09/01 08:59:45;;;;;;;1.80;0.90;;;18.90;90.10;;;;;;5085661;28;20040;-66
2022/09/01 09:02:23;;;;;;;;;;;18.80;89.90;;;;;;5080869;28;20654;-65
2022/09/01 09:04:55;;;;;;;2.05;1.02;;;18.80;90.30;;;;;;5084390;28;19920;-66
2022/09/01 09:07:59;;;;;;;2.25;1.30;;;18.90;90.00;;;;;;5078277;28;20089;-66
2022/09/01 09:10:36;;;;;;;2.53;1.23;;;18.70;87.80;;;;;;5076474;28;20039;-66
2022/09/01 09:13:21;;;;;;;2.00;0.95;;;18.80;90.10;;;;;;5085712;28;20047;-66
2022/09/01 09:15:57;;;;;;;4.35;1.15;;;18.90;88.00;;;;;;5075841;28;20148;-66
2022/09/01 09:18:53;;;;;;;;;;;18.80;87.00;;;;;;5085729;28;20104;-66
2022/09/01 09:21:32;;;;;;;6.65;0.85;;;18.90;87.80;;;;;;5064518;28;19959;-66
2022/09/01 09:24:06;;;;;;;1.67;1.00;;;18.80;85.70;;;;;;5083176;28;20039;-67
2022/09/01 09:26:31;;;;;;;1.45;0.80;;;18.60;86.90;;;;;;5079154;28;20430;-66
2022/09/01 09:28:57;;;;;;;;;;;18.70;85.50;;;;;;5088630;28;20042;-64
2022/09/01 09:31:42;;;;;;;3.65;1.08;;;18.80;87.40;;;;;;5081589;28;20379;-66
2022/09/01 09:34:26;;;;;;;2.28;0.88;;;18.80;85.40;;;;;;5083360;28;20041;-67
2022/09/01 09:36:52;;;;;;;3.55;1.00;;;18.90;88.40;;;;;;5079877;28;20611;-66
2022/09/01 09:39:17;;;;;;;;;;;18.90;88.00;;;;;;5087400;28;20035;-66
2022/09/01 09:42:02;;;;;;;5.15;1.10;;;18.90;85.60;;;;;;5074033;28;20607;-66
2022/09/01 09:44:31;;;;;;;3.72;0.98;;;18.80;86.20;;;;;;5081794;28;20032;-65
2022/09/01 09:46:57;;;;;;;2.10;0.90;;;18.90;87.30;;;;;;5080044;28;20054;-65
2022/09/01 09:49:33;;;;;;;;;;;19.20;86.50;;;;;;5087021;28;20102;-67
2022/09/01 09:52:01;;;;;;;5.20;0.95;;;19.00;85.60;;;;;;5080235;28;20404;-68
2022/09/01 09:54:29;;;;;;;4.05;1.45;;;18.90;87.60;;;;;;5085098;28;20504;-66
2022/09/01 09:57:10;;;;;;;2.53;0.77;;;18.60;86.70;;;;;;5081015;28;20048;-66
2022/09/01 09:59:53;;;;;;;3.10;1.00;;;18.40;86.40;;;;;;5081017;28;20538;-65
2022/09/01 10:02:43;;;;;;;4.70;1.27;;;18.20;86.60;;;;;;5073898;28;20119;-66
2022/09/01 10:05:52;;;;;;;3.03;1.13;;;18.30;87.80;;;;;;5081487;28;20047;-66
2022/09/01 10:08:29;;;;;;;2.83;1.00;;;18.40;88.30;;;;;;5086321;28;20047;-65
2022/09/01 10:10:54;;;;;;;3.67;1.10;;;18.40;87.10;;;;;;5078620;28;20778;-65
2022/09/01 10:13:22;;;;;;;;;;;18.30;87.00;;;;;;5086675;28;20028;-66
2022/09/01 10:15:50;;;;;;;;;;;18.30;86.30;;;;;;5081074;28;19916;-67
2022/09/01 10:18:19;;;;;;;6.07;1.10;;;18.30;87.70;;;;;;5086528;28;19923;-66
2022/09/01 10:20:52;;;;;;;6.28;1.00;;;18.60;89.00;;;;;;5080487;28;20071;-67
2022/09/01 10:23:18;;;;;;;3.45;0.95;;;18.60;87.60;;;;;;5078446;28;20073;-69
2022/09/01 10:25:44;;;;;;;2.28;0.80;;;18.50;86.80;;;;;;5088183;28;20044;-65
2022/09/01 10:28:23;;;;;;;6.38;1.02;;;18.60;87.90;;;;;;5084946;28;20396;-65
2022/09/01 10:30:52;;;;;;;1.65;0.82;;;18.90;85.50;;;;;;5077956;27;20085;-66
2022/09/01 10:33:19;;;;;;;3.08;1.23;;;19.20;85.10;;;;;;5084553;28;20395;-67
2022/09/01 10:35:49;;;;;;;4.60;1.13;;;19.40;84.70;;;;;;5078284;28;20048;-66
2022/09/01 10:38:22;;;;;;;1.23;0.95;;;19.60;83.70;;;;;;5082606;28;20088;-66
2022/09/01 10:41:05;;;;;;;5.18;0.73;;;19.80;81.40;;;;;;5077454;28;20500;-65
2022/09/01 10:43:47;;;;;;;2.42;1.20;;;19.90;82.20;;;;;;5081225;28;20032;-66
2022/09/01 10:46:19;;;;;;;6.03;1.10;;;19.90;80.50;;;;;;5080206;28;20065;-65
2022/09/01 10:48:52;;;;;;;3.78;0.95;;;20.00;80.00;;;;;;5085895;28;20702;-65
2022/09/01 10:51:18;;;;;;;3.90;1.17;;;20.30;81.20;;;;;;5080850;28;20048;-65
2022/09/01 10:53:53;;;;;;;;;;;20.10;80.00;;;;;;5089897;28;20117;-65
2022/09/01 10:56:37;;;;;;;5.78;1.13;;;19.90;79.10;;;;;;5074828;28;19962;-64
2022/09/01 10:59:21;;;;;;;6.38;0.88;;;20.00;80.20;;;;;;5086804;28;20036;-65
2022/09/01 11:01:47;;;;;;;2.25;0.90;;;20.00;78.80;;;;;;5075775;28;20036;-64
2022/09/01 11:04:21;;;;;;;;;;;19.90;79.10;;;;;;5084687;28;20043;-65
2022/09/01 11:06:50;;;;;;;1.48;0.80;;;20.20;80.50;;;;;;5079208;28;19920;-65
2022/09/01 11:09:21;;;;;;;1.27;0.80;;;20.60;79.90;;;;;;5084357;28;20039;-64
2022/09/01 11:12:28;;;;;;;1.40;0.90;;;20.80;78.30;;;;;;5081128;28;20070;-64
2022/09/01 11:14:55;;;;;;;1.58;1.00;;;20.30;77.20;;;;;;5081863;28;20487;-64
2022/09/01 11:17:27;;;;;;;2.83;0.90;;;20.00;78.90;;;;;;5084693;28;20040;-64
2022/09/01 11:20:11;;;;;;;1.92;1.00;;;20.00;78.90;;;;;;5081053;28;20044;-63
2022/09/01 11:22:58;;;;;;;2.55;0.80;;;20.40;78.10;;;;;;5083025;28;20036;-62
2022/09/01 11:25:38;;;;;;;3.28;0.85;;;20.40;77.50;;;;;;5083546;28;20441;-63
2022/09/01 11:28:34;;;;;;;1.38;0.80;;;20.60;77.90;;;;;;5085873;28;20131;-62
2022/09/01 11:31:05;;;;;;;1.52;0.73;;;20.60;76.50;;;;;;5077245;27;20544;-64
2022/09/01 11:34:12;;;;;;;4.90;2.10;;;20.30;76.40;;;;;;5085798;28;20552;-65
2022/09/01 11:36:54;;;;;;;2.15;0.93;;;19.90;77.20;;;;;;5079941;28;20055;-64
2022/09/01 11:39:38;;;;;;;5.22;2.10;;;19.90;78.40;;;;;;5084712;28;20040;-64
2022/09/01 11:42:22;;;;;;;6.53;1.35;;;20.20;76.90;;;;;;5080094;28;20064;-64
2022/09/01 11:45:03;;;;;;;6.53;1.33;;;20.20;77.60;;;;;;5084029;28;20048;-65
2022/09/01 11:47:36;;;;;;;1.35;0.70;;;20.60;76.90;;;;;;5083505;28;20074;-67
2022/09/01 11:50:06;;;;;;;1.95;0.93;;;20.90;74.70;;;;;;5083910;28;20121;-67
2022/09/01 11:52:35;;;;;;;1.17;0.77;;;21.10;74.80;;;;;;5084638;28;20070;-66
2022/09/01 11:55:04;;;;;;;4.35;1.05;;;21.10;74.40;;;;;;5089095;28;20872;-64
2022/09/01 11:57:39;;;;;;;1.48;1.10;;;20.90;74.80;;;;;;5076566;28;20173;-64
2022/09/01 12:00:10;;;;;;;1.45;0.90;;;20.90;74.10;;;;;;5085144;28;20451;-64
2022/09/01 12:02:44;;;;;;;3.20;0.85;;;21.00;74.00;;;;;;5085364;27;20059;-63
2022/09/01 12:05:28;;;;;;;3.05;0.85;;;20.80;72.50;;;;;;5085245;28;20043;-63
2022/09/01 12:07:55;;;;;;;5.70;0.93;;;20.90;73.20;;;;;;5082529;28;20408;-65
2022/09/01 12:10:26;;;;;;;1.42;0.80;;;21.10;73.60;;;;;;5082648;28;20032;-68
2022/09/01 12:13:05;;;;;;;3.85;0.80;;;20.70;72.80;;;;;;5080825;28;20173;-67
2022/09/01 12:15:33;;;;;;;5.07;0.82;;;20.40;74.10;;;;;;5084660;28;20044;-67
2022/09/01 12:18:17;;;;;;;5.88;1.45;;;20.40;74.40;;;;;;5087046;28;20047;-66
2022/09/01 12:20:44;;;;;;;2.15;0.88;;;20.30;75.20;;;;;;5078351;28;20036;-65
2022/09/01 12:23:21;;;;;;;3.72;1.25;;;20.60;75.10;;;;;;5086398;28;20039;-67
2022/09/01 12:25:47;;;;;;;2.03;1.00;;;20.80;74.20;;;;;;5078434;28;20041;-65
2022/09/01 12:28:13;;;;;;;;;;;20.80;73.10;;;;;;5088585;28;20039;-67
2022/09/01 12:30:40;;;;;;;2.95;0.98;;;20.70;73.80;;;;;;5084393;28;19981;-67
2022/09/01 12:33:09;;;;;;;2.80;0.80;;;20.40;74.00;;;;;;5088430;28;20040;-68
2022/09/01 12:35:35;;;;;;;1.75;0.90;;;20.10;74.70;;;;;;5086453;28;20511;-66
2022/09/01 12:38:19;;;;;;;;;;;20.00;75.80;;;;;;5086716;28;20044;-68
2022/09/01 12:40:54;;;;;;;1.90;0.90;;;20.00;75.20;;;;;;5082143;28;19999;-67
2022/09/01 12:43:34;;;;;;;3.72;0.80;;;19.80;75.30;;;;;;5082392;28;20403;-66
2022/09/01 12:46:03;;;;;;;2.20;1.20;;;20.00;76.00;;;;;;5080039;28;20043;-66
2022/09/01 12:48:35;;;;;;;1.92;0.90;;;19.80;75.70;;;;;;5087887;28;20044;-67
2022/09/01 12:51:14;;;;;;;1.48;1.05;;;19.80;75.50;;;;;;5085285;28;20070;-67
2022/09/01 12:53:40;;;;;;;2.45;0.98;;;19.80;76.20;;;;;;5090857;28;20039;-66
2022/09/01 12:56:15;;;;;;;;;;;19.80;75.90;;;;;;5087143;28;20051;-65
2022/09/01 12:58:46;;;;;;;1.67;1.13;;;19.90;76.70;;;;;;5083872;28;19916;-65
2022/09/01 13:01:25;;;;;;;1.30;0.80;;;19.90;76.60;;;;;;5078738;28;20048;-67
2022/09/01 13:04:33;;;;;;;1.80;0.90;;;19.80;76.50;;;;;;5087118;28;20052;-68
2022/09/01 13:07:05;;;;;;;;;;;19.70;75.90;;;;;;5015612;28;20065;-67
2022/09/01 13:09:31;;;;;;;4.47;1.08;;;19.90;75.40;;;;;;5076948;28;20453;-64
2022/09/01 13:12:29;;;;;;;;;;;20.30;75.80;;;;;;5084258;28;20035;-65
2022/09/01 13:14:54;;;;;;;3.63;0.85;;;20.60;73.60;;;;;;5081832;28;20454;-65
2022/09/01 13:17:20;;;;;;;1.70;0.85;;;20.60;74.00;;;;;;5084730;28;20127;-66
2022/09/01 13:19:46;;;;;;;;;;;20.60;74.20;;;;;;5080232;28;20127;-64
2022/09/01 13:22:11;;;;;;;4.20;1.40;;;20.50;73.70;;;;;;5081400;28;19964;-67